OAL929 LCPH-HLLT
Flight info
| Callsign | OAL929 |
|---|---|
| Flight time | N/A |
| Altitude | 38000 |
| Route | PHA DCT TOSKA UM978 SIT UM1 ARLOS DCT RASNO P310 MIS |
| Aircraft | B738/M-V/N |
Departure
| Time | 2026-04-25 11:37 |
|---|---|
| Airport | Paphos International Airport (LCPH) |
Arrival
| Time | N/A |
|---|---|
| Airport | HLLT |
| Time | Latitude | Longitude | Altitude | Speed | Heading |
|---|---|---|---|---|---|
| 2026-04-25 11:28 | 34.71649 | 32.50031 | 38 ft | 0 kts | 172° |
| 2026-04-25 11:35 | 34.71550 | 32.50001 | 36 ft | 20 kts | 208° |
| 2026-04-25 11:35 | 34.71444 | 32.49894 | 37 ft | 20 kts | 230° |
| 2026-04-25 11:35 | 34.71430 | 32.49873 | 37 ft | 0 kts | 230° |
| 2026-04-25 11:36 | 34.71420 | 32.49781 | 36 ft | 41 kts | 283° |
| 2026-04-25 11:36 | 34.71622 | 32.49122 | 42 ft | 123 kts | 290° |
| 2026-04-25 11:36 | 34.71985 | 32.47914 | 313 ft | 163 kts | 289° |
| 2026-04-25 11:37 | 34.72377 | 32.46576 | 1139 ft | 179 kts | 288° |
| 2026-04-25 11:37 | 34.72778 | 32.45008 | 1723 ft | 208 kts | 284° |
| 2026-04-25 11:37 | 34.73038 | 32.43169 | 2104 ft | 235 kts | 277° |
| 2026-04-25 11:37 | 34.73213 | 32.41080 | 2381 ft | 259 kts | 276° |
| 2026-04-25 11:38 | 34.73390 | 32.38849 | 3034 ft | 269 kts | 276° |
| 2026-04-25 11:38 | 34.73580 | 32.36581 | 3862 ft | 272 kts | 276° |
| 2026-04-25 11:38 | 34.73786 | 32.34281 | 4681 ft | 275 kts | 276° |
| 2026-04-25 11:38 | 34.74005 | 32.31958 | 5497 ft | 278 kts | 276° |
| 2026-04-25 11:39 | 34.74234 | 32.29624 | 6370 ft | 277 kts | 276° |
| 2026-04-25 11:39 | 34.74468 | 32.27296 | 7197 ft | 278 kts | 276° |
| 2026-04-25 11:39 | 34.74706 | 32.24965 | 8030 ft | 278 kts | 275° |
| 2026-04-25 11:39 | 34.74948 | 32.22633 | 8853 ft | 278 kts | 275° |
| 2026-04-25 11:40 | 34.75193 | 32.20292 | 9647 ft | 281 kts | 275° |
| 2026-04-25 11:40 | 34.75440 | 32.17928 | 10346 ft | 285 kts | 275° |
| 2026-04-25 11:40 | 34.75700 | 32.15441 | 10517 ft | 309 kts | 275° |
| 2026-04-25 11:40 | 34.75980 | 32.12759 | 10713 ft | 330 kts | 275° |
| 2026-04-25 11:41 | 34.76181 | 32.10845 | 10801 ft | 345 kts | 275° |
| 2026-04-25 11:41 | 34.76596 | 32.06901 | 11300 ft | 361 kts | 275° |
| 2026-04-25 11:41 | 34.76813 | 32.04846 | 11734 ft | 363 kts | 275° |
| 2026-04-25 11:41 | 34.77241 | 32.00799 | 12671 ft | 366 kts | 275° |
| 2026-04-25 11:42 | 34.77461 | 31.98719 | 13113 ft | 368 kts | 275° |
| 2026-04-25 11:42 | 34.77787 | 31.95614 | 13732 ft | 373 kts | 275° |
| 2026-04-25 11:42 | 34.78116 | 31.92472 | 14303 ft | 376 kts | 275° |
| 2026-04-25 11:42 | 34.78447 | 31.89306 | 14912 ft | 378 kts | 275° |
| 2026-04-25 11:43 | 34.78779 | 31.86124 | 15524 ft | 380 kts | 275° |
| 2026-04-25 11:43 | 34.79111 | 31.82922 | 16095 ft | 384 kts | 275° |
| 2026-04-25 11:43 | 34.79446 | 31.79688 | 16644 ft | 387 kts | 274° |
| 2026-04-25 11:43 | 34.79783 | 31.76428 | 17213 ft | 390 kts | 274° |
| 2026-04-25 11:44 | 34.80121 | 31.73146 | 17775 ft | 392 kts | 274° |
| 2026-04-25 11:44 | 34.80460 | 31.69838 | 18318 ft | 395 kts | 274° |
| 2026-04-25 11:44 | 34.80802 | 31.66504 | 18781 ft | 398 kts | 274° |
| 2026-04-25 11:44 | 34.81145 | 31.63150 | 19252 ft | 401 kts | 274° |
| 2026-04-25 11:45 | 34.81489 | 31.59769 | 19705 ft | 404 kts | 274° |
| 2026-04-25 11:45 | 34.81835 | 31.56361 | 20158 ft | 407 kts | 274° |
| 2026-04-25 11:45 | 34.82182 | 31.52932 | 20607 ft | 410 kts | 274° |
| 2026-04-25 11:45 | 34.82532 | 31.49476 | 21039 ft | 413 kts | 274° |
| 2026-04-25 11:46 | 34.82882 | 31.45996 | 21462 ft | 416 kts | 274° |
| 2026-04-25 11:46 | 34.83234 | 31.42488 | 21892 ft | 419 kts | 274° |
| 2026-04-25 11:46 | 34.83576 | 31.39077 | 22292 ft | 421 kts | 274° |
| 2026-04-25 11:46 | 34.83931 | 31.35524 | 22700 ft | 424 kts | 274° |
| 2026-04-25 11:47 | 34.84286 | 31.31951 | 23104 ft | 427 kts | 274° |
| 2026-04-25 11:47 | 34.84643 | 31.28357 | 23503 ft | 429 kts | 274° |
| 2026-04-25 11:47 | 34.85002 | 31.24735 | 23834 ft | 432 kts | 274° |
| 2026-04-25 11:47 | 34.85360 | 31.21098 | 24187 ft | 434 kts | 274° |
| 2026-04-25 11:48 | 34.85719 | 31.17452 | 24543 ft | 435 kts | 274° |
| 2026-04-25 11:48 | 34.86079 | 31.13786 | 24884 ft | 436 kts | 274° |
| 2026-04-25 11:48 | 34.86438 | 31.10109 | 25199 ft | 438 kts | 274° |
| 2026-04-25 11:48 | 34.86797 | 31.06417 | 25512 ft | 440 kts | 274° |
| 2026-04-25 11:49 | 34.87158 | 31.02701 | 25827 ft | 442 kts | 274° |
| 2026-04-25 11:49 | 34.87518 | 30.98986 | 26146 ft | 443 kts | 274° |
| 2026-04-25 11:49 | 34.87878 | 30.95250 | 26445 ft | 445 kts | 274° |
| 2026-04-25 11:49 | 34.88239 | 30.91497 | 26733 ft | 447 kts | 274° |
| 2026-04-25 11:50 | 34.88600 | 30.87729 | 27023 ft | 449 kts | 274° |
| 2026-04-25 11:50 | 34.88961 | 30.83949 | 27301 ft | 450 kts | 274° |
| 2026-04-25 11:50 | 34.89323 | 30.80149 | 27578 ft | 452 kts | 274° |
| 2026-04-25 11:50 | 34.89684 | 30.76345 | 27847 ft | 453 kts | 274° |
| 2026-04-25 11:51 | 34.90045 | 30.72527 | 28161 ft | 454 kts | 274° |
| 2026-04-25 11:51 | 34.90404 | 30.68715 | 28590 ft | 451 kts | 274° |
| 2026-04-25 11:51 | 34.90761 | 30.64930 | 29078 ft | 448 kts | 274° |
| 2026-04-25 11:51 | 34.91113 | 30.61173 | 29517 ft | 446 kts | 274° |
| 2026-04-25 11:52 | 34.91463 | 30.57416 | 29859 ft | 446 kts | 274° |
| 2026-04-25 11:52 | 34.91812 | 30.53660 | 30136 ft | 447 kts | 274° |
| 2026-04-25 11:52 | 34.92160 | 30.49899 | 30424 ft | 446 kts | 274° |
| 2026-04-25 11:52 | 34.92506 | 30.46153 | 30740 ft | 445 kts | 274° |
| 2026-04-25 11:53 | 34.92850 | 30.42411 | 31026 ft | 444 kts | 273° |
| 2026-04-25 11:53 | 34.93193 | 30.38672 | 31284 ft | 445 kts | 273° |
| 2026-04-25 11:53 | 34.93535 | 30.34923 | 31533 ft | 445 kts | 273° |
| 2026-04-25 11:53 | 34.93876 | 30.31186 | 31837 ft | 443 kts | 273° |
| 2026-04-25 11:54 | 34.94215 | 30.27454 | 32154 ft | 442 kts | 273° |
| 2026-04-25 11:54 | 34.94551 | 30.23731 | 32409 ft | 442 kts | 273° |
| 2026-04-25 11:54 | 34.95222 | 30.16271 | 32882 ft | 442 kts | 273° |
| 2026-04-25 11:55 | 34.95555 | 30.12553 | 33198 ft | 441 kts | 273° |
| 2026-04-25 11:55 | 34.95886 | 30.08847 | 33510 ft | 439 kts | 273° |
| 2026-04-25 11:55 | 34.96215 | 30.05148 | 33749 ft | 439 kts | 273° |
| 2026-04-25 11:55 | 34.96543 | 30.01450 | 33963 ft | 439 kts | 273° |
| 2026-04-25 11:56 | 34.96822 | 29.97743 | 34195 ft | 437 kts | 271° |
| 2026-04-25 11:56 | 34.96990 | 29.94052 | 34468 ft | 435 kts | 270° |
| 2026-04-25 11:56 | 34.97116 | 29.90380 | 34731 ft | 433 kts | 270° |
| 2026-04-25 11:56 | 34.97239 | 29.86720 | 34923 ft | 432 kts | 270° |
| 2026-04-25 11:57 | 34.97373 | 29.83056 | 35093 ft | 433 kts | 270° |
| 2026-04-25 11:57 | 34.97517 | 29.79399 | 35312 ft | 432 kts | 270° |
| 2026-04-25 11:57 | 34.97665 | 29.75750 | 35571 ft | 429 kts | 270° |
| 2026-04-25 11:57 | 34.97812 | 29.72125 | 35804 ft | 428 kts | 270° |
| 2026-04-25 11:58 | 34.97958 | 29.68501 | 35978 ft | 428 kts | 270° |
| 2026-04-25 11:58 | 34.98102 | 29.64878 | 36137 ft | 428 kts | 270° |
| 2026-04-25 11:58 | 34.98245 | 29.61262 | 36325 ft | 427 kts | 270° |
| 2026-04-25 11:58 | 34.98387 | 29.57656 | 36537 ft | 425 kts | 270° |
| 2026-04-25 11:59 | 34.98527 | 29.54061 | 36740 ft | 424 kts | 270° |
| 2026-04-25 11:59 | 34.98666 | 29.50467 | 36899 ft | 424 kts | 270° |
| 2026-04-25 11:59 | 34.98804 | 29.46873 | 37023 ft | 424 kts | 270° |
| 2026-04-25 12:00 | 34.99077 | 29.39678 | 37289 ft | 425 kts | 270° |
| 2026-04-25 12:00 | 34.99212 | 29.36087 | 37490 ft | 423 kts | 270° |
| 2026-04-25 12:00 | 34.99476 | 29.28953 | 37899 ft | 419 kts | 270° |
| 2026-04-25 12:01 | 34.99606 | 29.25400 | 37931 ft | 421 kts | 270° |
| 2026-04-25 12:01 | 34.99862 | 29.18272 | 37973 ft | 419 kts | 270° |
| 2026-04-25 12:02 | 35.00238 | 29.07642 | 37889 ft | 418 kts | 270° |
| 2026-04-25 12:02 | 35.00483 | 29.00590 | 37905 ft | 416 kts | 270° |
| 2026-04-25 12:03 | 35.00722 | 28.93552 | 37954 ft | 414 kts | 270° |
| 2026-04-25 12:03 | 35.00957 | 28.86528 | 37958 ft | 413 kts | 270° |
| 2026-04-25 12:04 | 35.01188 | 28.79507 | 37960 ft | 413 kts | 270° |
| 2026-04-25 12:04 | 35.01415 | 28.72488 | 37959 ft | 413 kts | 270° |
| 2026-04-25 12:05 | 35.01639 | 28.65460 | 37945 ft | 414 kts | 270° |
| 2026-04-25 12:05 | 35.01857 | 28.58416 | 37934 ft | 415 kts | 269° |
| 2026-04-25 12:06 | 35.02070 | 28.51349 | 37903 ft | 417 kts | 269° |
| 2026-04-25 12:06 | 35.02279 | 28.44268 | 37894 ft | 418 kts | 269° |
| 2026-04-25 12:07 | 35.02486 | 28.37163 | 37897 ft | 420 kts | 269° |
| 2026-04-25 12:07 | 35.02688 | 28.30087 | 37884 ft | 421 kts | 269° |
| 2026-04-25 12:08 | 35.02889 | 28.22901 | 37885 ft | 422 kts | 269° |
| 2026-04-25 12:08 | 35.03083 | 28.15793 | 37881 ft | 423 kts | 269° |
| 2026-04-25 12:09 | 35.03276 | 28.08571 | 37884 ft | 424 kts | 269° |
| 2026-04-25 12:09 | 35.03463 | 28.01434 | 37884 ft | 424 kts | 269° |
| 2026-04-25 12:10 | 35.03647 | 27.94234 | 37886 ft | 425 kts | 269° |
| 2026-04-25 12:10 | 35.03829 | 27.86976 | 37879 ft | 425 kts | 269° |
| 2026-04-25 12:11 | 35.04004 | 27.79809 | 37871 ft | 426 kts | 269° |
| 2026-04-25 12:11 | 35.04176 | 27.72592 | 37874 ft | 426 kts | 269° |
| 2026-04-25 12:12 | 35.04316 | 27.66542 | 37890 ft | 426 kts | 269° |
| 2026-04-25 12:12 | 35.04507 | 27.58150 | 37892 ft | 426 kts | 269° |
| 2026-04-25 12:13 | 35.04667 | 27.50927 | 37892 ft | 425 kts | 269° |
| 2026-04-25 12:13 | 35.04824 | 27.43706 | 37877 ft | 426 kts | 269° |
| 2026-04-25 12:14 | 35.04978 | 27.36480 | 37862 ft | 426 kts | 269° |
| 2026-04-25 12:14 | 35.05129 | 27.29254 | 37871 ft | 426 kts | 269° |
| 2026-04-25 12:15 | 35.05273 | 27.22019 | 37883 ft | 426 kts | 269° |
| 2026-04-25 12:15 | 35.05410 | 27.14775 | 37876 ft | 427 kts | 269° |
| 2026-04-25 12:16 | 35.05544 | 27.07522 | 37863 ft | 428 kts | 269° |
| 2026-04-25 12:16 | 35.05674 | 27.00258 | 37878 ft | 429 kts | 269° |
| 2026-04-25 12:17 | 35.05801 | 26.92970 | 37874 ft | 430 kts | 269° |
| 2026-04-25 12:17 | 35.05924 | 26.85629 | 37866 ft | 431 kts | 269° |
| 2026-04-25 12:18 | 35.06042 | 26.78312 | 37877 ft | 432 kts | 269° |
| 2026-04-25 12:18 | 35.06156 | 26.70993 | 37866 ft | 433 kts | 269° |
| 2026-04-25 12:19 | 35.06319 | 26.59955 | 37880 ft | 434 kts | 269° |
| 2026-04-25 12:20 | 35.06423 | 26.52582 | 37867 ft | 435 kts | 269° |
| 2026-04-25 12:20 | 35.06522 | 26.45195 | 37870 ft | 436 kts | 269° |
| 2026-04-25 12:21 | 35.06617 | 26.37800 | 37877 ft | 436 kts | 269° |
| 2026-04-25 12:21 | 35.06693 | 26.31644 | 37870 ft | 437 kts | 269° |
| 2026-04-25 12:22 | 35.06781 | 26.24212 | 37834 ft | 440 kts | 269° |
| 2026-04-25 12:22 | 35.06689 | 26.16777 | 37819 ft | 439 kts | 261° |
| 2026-04-25 12:22 | 35.06225 | 26.13120 | 38011 ft | 433 kts | 259° |
| 2026-04-25 12:23 | 35.05732 | 26.09491 | 37898 ft | 436 kts | 259° |
| 2026-04-25 12:23 | 35.04755 | 26.02189 | 37893 ft | 436 kts | 260° |
| 2026-04-25 12:24 | 35.03806 | 25.94875 | 37890 ft | 436 kts | 260° |
| 2026-04-25 12:24 | 35.02872 | 25.87564 | 37903 ft | 438 kts | 260° |
| 2026-04-25 12:25 | 35.01929 | 25.80192 | 37891 ft | 439 kts | 260° |
| 2026-04-25 12:25 | 35.00983 | 25.72832 | 37893 ft | 438 kts | 260° |
| 2026-04-25 12:26 | 35.00034 | 25.65490 | 37890 ft | 437 kts | 260° |
| 2026-04-25 12:26 | 34.99082 | 25.58165 | 37890 ft | 435 kts | 260° |
| 2026-04-25 12:27 | 34.98130 | 25.50874 | 37884 ft | 434 kts | 260° |
| 2026-04-25 12:27 | 34.97180 | 25.43636 | 37869 ft | 434 kts | 260° |
| 2026-04-25 12:28 | 34.96216 | 25.36324 | 37859 ft | 435 kts | 260° |
| 2026-04-25 12:28 | 34.95253 | 25.29057 | 37884 ft | 435 kts | 260° |
| 2026-04-25 12:29 | 34.94285 | 25.21780 | 37891 ft | 435 kts | 260° |
| 2026-04-25 12:29 | 34.93311 | 25.14497 | 37875 ft | 437 kts | 260° |
| 2026-04-25 12:30 | 34.92322 | 25.07132 | 37861 ft | 438 kts | 260° |
| 2026-04-25 12:30 | 34.91335 | 24.99823 | 37864 ft | 439 kts | 260° |
| 2026-04-25 12:31 | 34.90339 | 24.92479 | 37886 ft | 440 kts | 260° |
| 2026-04-25 12:31 | 34.89336 | 24.85119 | 37883 ft | 440 kts | 261° |
| 2026-04-25 12:32 | 34.88327 | 24.77743 | 37860 ft | 442 kts | 261° |
| 2026-04-25 12:32 | 34.87314 | 24.70380 | 37860 ft | 442 kts | 261° |
| 2026-04-25 12:33 | 34.86296 | 24.63006 | 37873 ft | 442 kts | 261° |
| 2026-04-25 12:33 | 34.85269 | 24.55612 | 37876 ft | 442 kts | 261° |
| 2026-04-25 12:34 | 34.84241 | 24.48236 | 37857 ft | 443 kts | 261° |
| 2026-04-25 12:34 | 34.83200 | 24.40808 | 37864 ft | 443 kts | 261° |
| 2026-04-25 12:35 | 34.82169 | 24.33479 | 37878 ft | 442 kts | 261° |
| 2026-04-25 12:35 | 34.81123 | 24.26077 | 37862 ft | 442 kts | 261° |
| 2026-04-25 12:36 | 34.80082 | 24.18749 | 37882 ft | 441 kts | 261° |
| 2026-04-25 12:36 | 34.79025 | 24.11337 | 37863 ft | 441 kts | 261° |
| 2026-04-25 12:37 | 34.77975 | 24.04009 | 37885 ft | 440 kts | 261° |
| 2026-04-25 12:37 | 34.76925 | 23.96711 | 37870 ft | 440 kts | 261° |
| 2026-04-25 12:38 | 34.75859 | 23.89335 | 37876 ft | 440 kts | 261° |
| 2026-04-25 12:38 | 34.74799 | 23.82034 | 37885 ft | 439 kts | 261° |
| 2026-04-25 12:39 | 34.73734 | 23.74729 | 37874 ft | 440 kts | 261° |
| 2026-04-25 12:39 | 34.72663 | 23.67414 | 37891 ft | 439 kts | 261° |
| 2026-04-25 12:40 | 34.71581 | 23.60059 | 37889 ft | 439 kts | 261° |
| 2026-04-25 12:40 | 34.70505 | 23.52770 | 37893 ft | 439 kts | 261° |
| 2026-04-25 12:41 | 34.69421 | 23.45456 | 37909 ft | 438 kts | 261° |
| 2026-04-25 12:41 | 34.68340 | 23.38221 | 37901 ft | 438 kts | 261° |
| 2026-04-25 12:42 | 34.67236 | 23.30909 | 37906 ft | 437 kts | 261° |
| 2026-04-25 12:42 | 34.66138 | 23.23657 | 37912 ft | 436 kts | 261° |
| 2026-04-25 12:43 | 34.65043 | 23.16446 | 37918 ft | 435 kts | 261° |
| 2026-04-25 12:43 | 34.63399 | 23.05669 | 37928 ft | 433 kts | 261° |
| 2026-04-25 12:44 | 34.62289 | 22.98487 | 37926 ft | 432 kts | 260° |
| 2026-04-25 12:45 | 34.60332 | 22.87830 | 37956 ft | 431 kts | 259° |
| 2026-04-25 12:45 | 34.58325 | 22.77206 | 37947 ft | 430 kts | 259° |
| 2026-04-25 12:46 | 34.57003 | 22.70119 | 37955 ft | 431 kts | 259° |
| 2026-04-25 12:46 | 34.55680 | 22.63025 | 37957 ft | 431 kts | 259° |
| 2026-04-25 12:47 | 34.54345 | 22.55883 | 37976 ft | 432 kts | 259° |
| 2026-04-25 12:47 | 34.53019 | 22.48815 | 37966 ft | 434 kts | 259° |
| 2026-04-25 12:48 | 34.51666 | 22.41633 | 37968 ft | 435 kts | 259° |
| 2026-04-25 12:48 | 34.50311 | 22.34467 | 37988 ft | 436 kts | 259° |
| 2026-04-25 12:49 | 34.48953 | 22.27307 | 37970 ft | 438 kts | 258° |
| 2026-04-25 12:49 | 34.47580 | 22.20093 | 37994 ft | 438 kts | 258° |
| 2026-04-25 12:50 | 34.46204 | 22.12889 | 37994 ft | 439 kts | 258° |
| 2026-04-25 12:50 | 34.44826 | 22.05697 | 37980 ft | 440 kts | 258° |
| 2026-04-25 12:51 | 34.43442 | 21.98499 | 38002 ft | 439 kts | 258° |
| 2026-04-25 12:51 | 34.42048 | 21.91271 | 37987 ft | 439 kts | 258° |
| 2026-04-25 12:52 | 34.40653 | 21.84068 | 38000 ft | 438 kts | 258° |
| 2026-04-25 12:52 | 34.39263 | 21.76906 | 37996 ft | 438 kts | 258° |
| 2026-04-25 12:53 | 34.37868 | 21.69749 | 38004 ft | 437 kts | 258° |
| 2026-04-25 12:53 | 34.36471 | 21.62602 | 38009 ft | 436 kts | 258° |
| 2026-04-25 12:54 | 34.35070 | 21.55455 | 38007 ft | 435 kts | 258° |
| 2026-04-25 12:54 | 34.33669 | 21.48331 | 38013 ft | 435 kts | 258° |
| 2026-04-25 12:55 | 34.32589 | 21.43621 | 37977 ft | 436 kts | 253° |
| 2026-04-25 12:55 | 34.29902 | 21.34389 | 37995 ft | 436 kts | 252° |
| 2026-04-25 12:56 | 34.27874 | 21.27514 | 37984 ft | 436 kts | 252° |
| 2026-04-25 12:56 | 34.25875 | 21.20634 | 37990 ft | 436 kts | 253° |
| 2026-04-25 12:57 | 34.23885 | 21.13747 | 37997 ft | 435 kts | 253° |
| 2026-04-25 12:57 | 34.21891 | 21.06847 | 38007 ft | 435 kts | 253° |
| 2026-04-25 12:58 | 34.19893 | 20.99950 | 38016 ft | 435 kts | 253° |
| 2026-04-25 12:58 | 34.17880 | 20.93019 | 38024 ft | 435 kts | 253° |
| 2026-04-25 12:59 | 34.15878 | 20.86146 | 38035 ft | 435 kts | 253° |
| 2026-04-25 12:59 | 34.13864 | 20.79248 | 38040 ft | 435 kts | 253° |
| 2026-04-25 13:00 | 34.12524 | 20.74665 | 38024 ft | 436 kts | 253° |
| 2026-04-25 13:00 | 34.10163 | 20.66614 | 38028 ft | 436 kts | 253° |
| 2026-04-25 13:01 | 34.08148 | 20.59756 | 38040 ft | 435 kts | 253° |
| 2026-04-25 13:01 | 34.06114 | 20.52854 | 38032 ft | 436 kts | 253° |
| 2026-04-25 13:02 | 34.04086 | 20.45985 | 38041 ft | 435 kts | 253° |
| 2026-04-25 13:02 | 34.02041 | 20.39078 | 38045 ft | 435 kts | 253° |
| 2026-04-25 13:03 | 34.00000 | 20.32200 | 38037 ft | 435 kts | 253° |
| 2026-04-25 13:03 | 33.97958 | 20.25334 | 38044 ft | 435 kts | 253° |
| 2026-04-25 13:04 | 33.95921 | 20.18502 | 38041 ft | 434 kts | 253° |
| 2026-04-25 13:04 | 33.93886 | 20.11692 | 38061 ft | 434 kts | 253° |
| 2026-04-25 13:05 | 33.91839 | 20.04855 | 38054 ft | 434 kts | 252° |
| 2026-04-25 13:05 | 33.89777 | 19.97985 | 38048 ft | 433 kts | 252° |
| 2026-04-25 13:06 | 33.87735 | 19.91199 | 38068 ft | 433 kts | 252° |
| 2026-04-25 13:06 | 33.85685 | 19.84402 | 38054 ft | 433 kts | 252° |
| 2026-04-25 13:07 | 33.83619 | 19.77566 | 38065 ft | 433 kts | 252° |
| 2026-04-25 13:07 | 33.81564 | 19.70782 | 38059 ft | 433 kts | 252° |
| 2026-04-25 13:08 | 33.79505 | 19.64002 | 38051 ft | 433 kts | 252° |
| 2026-04-25 13:08 | 33.77426 | 19.57172 | 38071 ft | 432 kts | 253° |
| 2026-04-25 13:09 | 33.75361 | 19.50399 | 38055 ft | 433 kts | 252° |
| 2026-04-25 13:09 | 33.73292 | 19.43628 | 38084 ft | 432 kts | 253° |
| 2026-04-25 13:10 | 33.71223 | 19.36860 | 38053 ft | 433 kts | 253° |
| 2026-04-25 13:10 | 33.69204 | 19.30026 | 38063 ft | 432 kts | 253° |
| 2026-04-25 13:11 | 33.67213 | 19.23226 | 38083 ft | 432 kts | 253° |
| 2026-04-25 13:11 | 33.65214 | 19.16435 | 38076 ft | 432 kts | 253° |
| 2026-04-25 13:12 | 33.63198 | 19.09620 | 38072 ft | 432 kts | 253° |
| 2026-04-25 13:12 | 33.61522 | 19.03970 | 38075 ft | 432 kts | 253° |
| 2026-04-25 13:13 | 33.59167 | 18.96054 | 38086 ft | 432 kts | 253° |
| 2026-04-25 13:13 | 33.57145 | 18.89268 | 38074 ft | 432 kts | 253° |
| 2026-04-25 13:14 | 33.55126 | 18.82510 | 38096 ft | 431 kts | 253° |
| 2026-04-25 13:14 | 33.53090 | 18.75706 | 38081 ft | 431 kts | 253° |
| 2026-04-25 13:15 | 33.51069 | 18.68994 | 38092 ft | 431 kts | 253° |
| 2026-04-25 13:15 | 33.49005 | 18.62195 | 38088 ft | 431 kts | 253° |
| 2026-04-25 13:16 | 33.46958 | 18.55463 | 38101 ft | 430 kts | 253° |
| 2026-04-25 13:16 | 33.44919 | 18.48765 | 38090 ft | 430 kts | 253° |
| 2026-04-25 13:17 | 33.42858 | 18.42003 | 38094 ft | 430 kts | 253° |
| 2026-04-25 13:17 | 33.40811 | 18.35306 | 38099 ft | 429 kts | 253° |
| 2026-04-25 13:18 | 33.38768 | 18.28615 | 38088 ft | 429 kts | 254° |
| 2026-04-25 13:18 | 33.36728 | 18.21936 | 38108 ft | 428 kts | 254° |
| 2026-04-25 13:19 | 33.34681 | 18.15251 | 38093 ft | 428 kts | 254° |
| 2026-04-25 13:19 | 33.32972 | 18.09681 | 38101 ft | 427 kts | 254° |
| 2026-04-25 13:20 | 33.30577 | 18.01893 | 38103 ft | 427 kts | 254° |
| 2026-04-25 13:20 | 33.28530 | 17.95251 | 38095 ft | 427 kts | 254° |
| 2026-04-25 13:21 | 33.26476 | 17.88604 | 38115 ft | 426 kts | 254° |
| 2026-04-25 13:21 | 33.24417 | 17.81951 | 38105 ft | 426 kts | 254° |
| 2026-04-25 13:22 | 33.22365 | 17.75332 | 38106 ft | 425 kts | 254° |
| 2026-04-25 13:23 | 33.19271 | 17.65395 | 38109 ft | 425 kts | 254° |
| 2026-04-25 13:23 | 33.17202 | 17.58770 | 38104 ft | 425 kts | 254° |
| 2026-04-25 13:24 | 33.15148 | 17.52206 | 38121 ft | 425 kts | 254° |
| 2026-04-25 13:24 | 33.13079 | 17.45603 | 38099 ft | 425 kts | 254° |
| 2026-04-25 13:25 | 33.10993 | 17.38959 | 38129 ft | 424 kts | 254° |
| 2026-04-25 13:25 | 33.08919 | 17.32368 | 38098 ft | 425 kts | 254° |
| 2026-04-25 13:26 | 33.06841 | 17.25781 | 38125 ft | 424 kts | 254° |
| 2026-04-25 13:26 | 33.04758 | 17.19190 | 38121 ft | 424 kts | 254° |
| 2026-04-25 13:27 | 33.02673 | 17.12607 | 38112 ft | 425 kts | 254° |
| 2026-04-25 13:27 | 33.00588 | 17.06033 | 38113 ft | 424 kts | 254° |
| 2026-04-25 13:28 | 32.98496 | 16.99456 | 38117 ft | 424 kts | 254° |
| 2026-04-25 13:28 | 32.96401 | 16.92886 | 38119 ft | 424 kts | 254° |
| 2026-04-25 13:29 | 32.94304 | 16.86322 | 38126 ft | 424 kts | 254° |
| 2026-04-25 13:29 | 32.92206 | 16.79764 | 38127 ft | 424 kts | 254° |
| 2026-04-25 13:30 | 32.89052 | 16.69927 | 38125 ft | 424 kts | 254° |
| 2026-04-25 13:31 | 32.85889 | 16.60096 | 38126 ft | 424 kts | 254° |
| 2026-04-25 13:31 | 32.83789 | 16.53585 | 38125 ft | 424 kts | 254° |
| 2026-04-25 13:32 | 32.81659 | 16.46994 | 38134 ft | 424 kts | 254° |
| 2026-04-25 13:32 | 32.79552 | 16.40490 | 38128 ft | 424 kts | 254° |
| 2026-04-25 13:33 | 32.77429 | 16.33947 | 38132 ft | 424 kts | 254° |
| 2026-04-25 13:33 | 32.75302 | 16.27406 | 38135 ft | 424 kts | 254° |
| 2026-04-25 13:34 | 32.73171 | 16.20868 | 38129 ft | 425 kts | 254° |
| 2026-04-25 13:34 | 32.71034 | 16.14323 | 38138 ft | 425 kts | 254° |
| 2026-04-25 13:35 | 32.68896 | 16.07786 | 38133 ft | 425 kts | 254° |
| 2026-04-25 13:35 | 32.66752 | 16.01253 | 38126 ft | 425 kts | 253° |
| 2026-04-25 13:36 | 32.64416 | 15.94789 | 38133 ft | 427 kts | 251° |
| 2026-04-25 13:36 | 32.61984 | 15.88344 | 37640 ft | 433 kts | 251° |
| 2026-04-25 13:36 | 32.60753 | 15.85062 | 36889 ft | 435 kts | 251° |
| 2026-04-25 13:37 | 32.59532 | 15.81797 | 36281 ft | 432 kts | 251° |
| 2026-04-25 13:37 | 32.58328 | 15.78571 | 36032 ft | 422 kts | 251° |
| 2026-04-25 13:37 | 32.57140 | 15.75382 | 35118 ft | 429 kts | 251° |
| 2026-04-25 13:37 | 32.55947 | 15.72170 | 34820 ft | 420 kts | 251° |
| 2026-04-25 13:38 | 32.54757 | 15.68964 | 33840 ft | 428 kts | 251° |
| 2026-04-25 13:38 | 32.53570 | 15.65777 | 33167 ft | 424 kts | 251° |
| 2026-04-25 13:38 | 32.52377 | 15.62574 | 32739 ft | 419 kts | 252° |
| 2026-04-25 13:38 | 32.51189 | 15.59387 | 31750 ft | 425 kts | 252° |
| 2026-04-25 13:39 | 32.50008 | 15.56229 | 30978 ft | 424 kts | 252° |
| 2026-04-25 13:39 | 32.48822 | 15.53054 | 30648 ft | 416 kts | 252° |
| 2026-04-25 13:39 | 32.47644 | 15.49903 | 30040 ft | 414 kts | 252° |
| 2026-04-25 13:39 | 32.46479 | 15.46794 | 29247 ft | 415 kts | 252° |
| 2026-04-25 13:40 | 32.45331 | 15.43732 | 28786 ft | 407 kts | 252° |
| 2026-04-25 13:40 | 32.44193 | 15.40695 | 28516 ft | 397 kts | 252° |
| 2026-04-25 13:40 | 32.43067 | 15.37693 | 27957 ft | 394 kts | 252° |
| 2026-04-25 13:40 | 32.41948 | 15.34736 | 27234 ft | 396 kts | 251° |
| 2026-04-25 13:41 | 32.40810 | 15.31795 | 26756 ft | 400 kts | 251° |
| 2026-04-25 13:41 | 32.39640 | 15.28784 | 26441 ft | 406 kts | 251° |
| 2026-04-25 13:41 | 32.38442 | 15.25711 | 25886 ft | 407 kts | 251° |
| 2026-04-25 13:41 | 32.37256 | 15.22683 | 25237 ft | 407 kts | 251° |
| 2026-04-25 13:42 | 32.36079 | 15.19672 | 24814 ft | 401 kts | 251° |
| 2026-04-25 13:42 | 32.35291 | 15.17649 | 24446 ft | 400 kts | 251° |
| 2026-04-25 13:42 | 32.34133 | 15.14683 | 23980 ft | 396 kts | 251° |
| 2026-04-25 13:42 | 32.32993 | 15.11735 | 23447 ft | 392 kts | 253° |
| 2026-04-25 13:43 | 32.32326 | 15.08676 | 22879 ft | 378 kts | 270° |
| 2026-04-25 13:43 | 32.32378 | 15.05613 | 22126 ft | 374 kts | 282° |
| 2026-04-25 13:43 | 32.33034 | 15.02680 | 21720 ft | 364 kts | 291° |
| 2026-04-25 13:43 | 32.33919 | 14.99914 | 21189 ft | 362 kts | 294° |
| 2026-04-25 13:44 | 32.34861 | 14.97166 | 20658 ft | 360 kts | 294° |
| 2026-04-25 13:44 | 32.35808 | 14.94438 | 20204 ft | 357 kts | 294° |
| 2026-04-25 13:44 | 32.36758 | 14.91686 | 19711 ft | 356 kts | 294° |
| 2026-04-25 13:44 | 32.37669 | 14.89015 | 19264 ft | 354 kts | 294° |
| 2026-04-25 13:45 | 32.38582 | 14.86314 | 18800 ft | 353 kts | 294° |
| 2026-04-25 13:45 | 32.39487 | 14.83614 | 18295 ft | 353 kts | 294° |
| 2026-04-25 13:45 | 32.40388 | 14.80914 | 17788 ft | 352 kts | 294° |
| 2026-04-25 13:45 | 32.41281 | 14.78228 | 17301 ft | 350 kts | 293° |
| 2026-04-25 13:46 | 32.42168 | 14.75554 | 16828 ft | 348 kts | 293° |
| 2026-04-25 13:46 | 32.43050 | 14.72891 | 16369 ft | 346 kts | 293° |
| 2026-04-25 13:46 | 32.43926 | 14.70243 | 15915 ft | 344 kts | 293° |
| 2026-04-25 13:46 | 32.44797 | 14.67608 | 15460 ft | 343 kts | 293° |
| 2026-04-25 13:47 | 32.45663 | 14.64987 | 15010 ft | 341 kts | 293° |
| 2026-04-25 13:47 | 32.46525 | 14.62374 | 14571 ft | 340 kts | 293° |
| 2026-04-25 13:47 | 32.47386 | 14.59765 | 14111 ft | 339 kts | 293° |
| 2026-04-25 13:47 | 32.48243 | 14.57164 | 13613 ft | 339 kts | 293° |
| 2026-04-25 13:48 | 32.49099 | 14.54563 | 13137 ft | 338 kts | 293° |
| 2026-04-25 13:48 | 32.49950 | 14.51977 | 12664 ft | 336 kts | 292° |
| 2026-04-25 13:48 | 32.50796 | 14.49404 | 12212 ft | 335 kts | 292° |
| 2026-04-25 13:48 | 32.51639 | 14.46834 | 11762 ft | 333 kts | 292° |
| 2026-04-25 13:49 | 32.52478 | 14.44279 | 11314 ft | 332 kts | 292° |
| 2026-04-25 13:49 | 32.53311 | 14.41737 | 10993 ft | 327 kts | 292° |
| 2026-04-25 13:49 | 32.54120 | 14.39266 | 10818 ft | 318 kts | 292° |
| 2026-04-25 13:49 | 32.54909 | 14.36856 | 10690 ft | 308 kts | 292° |
| 2026-04-25 13:50 | 32.55673 | 14.34520 | 10553 ft | 300 kts | 292° |
| 2026-04-25 13:50 | 32.56415 | 14.32247 | 10423 ft | 291 kts | 292° |
| 2026-04-25 13:50 | 32.57136 | 14.30040 | 10303 ft | 283 kts | 292° |
| 2026-04-25 13:50 | 32.57837 | 14.27890 | 10177 ft | 276 kts | 292° |
| 2026-04-25 13:51 | 32.58522 | 14.25794 | 9971 ft | 272 kts | 292° |
| 2026-04-25 13:51 | 32.59203 | 14.23706 | 9661 ft | 271 kts | 292° |
| 2026-04-25 13:51 | 32.59880 | 14.21625 | 9370 ft | 270 kts | 292° |
| 2026-04-25 13:51 | 32.60555 | 14.19556 | 9074 ft | 268 kts | 292° |
| 2026-04-25 13:52 | 32.61225 | 14.17497 | 8786 ft | 268 kts | 292° |
| 2026-04-25 13:52 | 32.61896 | 14.15436 | 8490 ft | 268 kts | 292° |
| 2026-04-25 13:52 | 32.62568 | 14.13372 | 8194 ft | 268 kts | 292° |
| 2026-04-25 13:52 | 32.63239 | 14.11302 | 7894 ft | 269 kts | 291° |
| 2026-04-25 13:53 | 32.63909 | 14.09235 | 7594 ft | 269 kts | 291° |
| 2026-04-25 13:53 | 32.64579 | 14.07169 | 7313 ft | 268 kts | 291° |
| 2026-04-25 13:53 | 32.65248 | 14.05108 | 7008 ft | 267 kts | 291° |
| 2026-04-25 13:53 | 32.65913 | 14.03052 | 6733 ft | 267 kts | 291° |
| 2026-04-25 13:54 | 32.66578 | 14.00998 | 6436 ft | 267 kts | 291° |
| 2026-04-25 13:54 | 32.67224 | 13.98936 | 6132 ft | 266 kts | 285° |
| 2026-04-25 13:54 | 32.67391 | 13.96778 | 5926 ft | 260 kts | 268° |
| 2026-04-25 13:54 | 32.67330 | 13.94649 | 5714 ft | 256 kts | 268° |
| 2026-04-25 13:55 | 32.67298 | 13.92562 | 5587 ft | 251 kts | 268° |
| 2026-04-25 13:55 | 32.67273 | 13.90489 | 5439 ft | 252 kts | 268° |
| 2026-04-25 13:55 | 32.67248 | 13.88404 | 5302 ft | 253 kts | 268° |
| 2026-04-25 13:55 | 32.67227 | 13.86307 | 5166 ft | 255 kts | 268° |
| 2026-04-25 13:56 | 32.67206 | 13.84194 | 5015 ft | 257 kts | 268° |
| 2026-04-25 13:56 | 32.67185 | 13.82065 | 4868 ft | 259 kts | 267° |
| 2026-04-25 13:56 | 32.67161 | 13.79922 | 4715 ft | 260 kts | 267° |
| 2026-04-25 13:56 | 32.67139 | 13.77776 | 4584 ft | 261 kts | 267° |
| 2026-04-25 13:57 | 32.67117 | 13.75619 | 4418 ft | 261 kts | 267° |
| 2026-04-25 13:57 | 32.67101 | 13.74193 | 4326 ft | 261 kts | 267° |
| 2026-04-25 13:57 | 32.67072 | 13.71312 | 4133 ft | 262 kts | 267° |
| 2026-04-25 13:57 | 32.67050 | 13.69160 | 3997 ft | 260 kts | 267° |
| 2026-04-25 13:58 | 32.67027 | 13.67021 | 3841 ft | 258 kts | 267° |
| 2026-04-25 13:58 | 32.67003 | 13.64908 | 3699 ft | 255 kts | 268° |
| 2026-04-25 13:58 | 32.66979 | 13.62806 | 3546 ft | 255 kts | 268° |
| 2026-04-25 13:58 | 32.66959 | 13.60690 | 3426 ft | 257 kts | 268° |
| 2026-04-25 13:59 | 32.66933 | 13.58571 | 3278 ft | 255 kts | 268° |
| 2026-04-25 13:59 | 32.66904 | 13.56518 | 3236 ft | 243 kts | 268° |
| 2026-04-25 13:59 | 32.66923 | 13.54561 | 3148 ft | 231 kts | 272° |
| 2026-04-25 13:59 | 32.66994 | 13.52712 | 3061 ft | 218 kts | 269° |
| 2026-04-25 14:00 | 32.66973 | 13.50968 | 2975 ft | 205 kts | 267° |
| 2026-04-25 14:00 | 32.66937 | 13.49331 | 2897 ft | 193 kts | 268° |
| 2026-04-25 14:00 | 32.66918 | 13.47744 | 2626 ft | 194 kts | 269° |
| 2026-04-25 14:00 | 32.66889 | 13.46158 | 2469 ft | 190 kts | 269° |
| 2026-04-25 14:01 | 32.66858 | 13.44612 | 2317 ft | 184 kts | 269° |
| 2026-04-25 14:01 | 32.66827 | 13.43079 | 2225 ft | 188 kts | 270° |
| 2026-04-25 14:01 | 32.66800 | 13.41493 | 2131 ft | 197 kts | 270° |
| 2026-04-25 14:01 | 32.66770 | 13.39867 | 2074 ft | 196 kts | 271° |
| 2026-04-25 14:02 | 32.66738 | 13.38266 | 2028 ft | 192 kts | 270° |
| 2026-04-25 14:02 | 32.66711 | 13.36693 | 1998 ft | 189 kts | 271° |
| 2026-04-25 14:02 | 32.66688 | 13.35138 | 2024 ft | 189 kts | 271° |
| 2026-04-25 14:02 | 32.66681 | 13.34629 | 2032 ft | 191 kts | 270° |
| 2026-04-25 14:03 | 32.66630 | 13.32122 | 1990 ft | 169 kts | 271° |
| 2026-04-25 14:03 | 32.66607 | 13.30738 | 2038 ft | 169 kts | 271° |
| 2026-04-25 14:03 | 32.66584 | 13.29360 | 2004 ft | 165 kts | 272° |
| 2026-04-25 14:03 | 32.66561 | 13.28014 | 1968 ft | 161 kts | 271° |
| 2026-04-25 14:04 | 32.66538 | 13.26705 | 1671 ft | 156 kts | 272° |
| 2026-04-25 14:04 | 32.66517 | 13.25418 | 1339 ft | 151 kts | 272° |
| 2026-04-25 14:04 | 32.66499 | 13.24220 | 1414 ft | 152 kts | 274° |
| 2026-04-25 14:04 | 32.66477 | 13.22897 | 1390 ft | 165 kts | 271° |
| 2026-04-25 14:05 | 32.66452 | 13.21530 | 1129 ft | 163 kts | 273° |
| 2026-04-25 14:05 | 32.66430 | 13.20195 | 897 ft | 161 kts | 273° |
| 2026-04-25 14:05 | 32.66409 | 13.18865 | 689 ft | 164 kts | 271° |
| 2026-04-25 14:05 | 32.66387 | 13.17507 | 454 ft | 161 kts | 270° |
| 2026-04-25 14:06 | 32.66363 | 13.16243 | 291 ft | 141 kts | 269° |
| 2026-04-25 14:06 | 32.66354 | 13.15530 | 288 ft | 14 kts | 269° |
| 2026-04-25 14:06 | 32.66406 | 13.15479 | 287 ft | 15 kts | 343° |
| 2026-04-25 14:06 | 32.66443 | 13.15467 | 286 ft | 0 kts | 345° |